createdAt,value
2022-11-30T00:01:14.924Z,50.50
2022-11-30T00:03:43.054Z,50.27
2022-11-30T00:06:13.385Z,50.63
2022-11-30T00:08:41.652Z,50.43
2022-11-30T00:11:11.108Z,50.33
2022-11-30T00:13:38.916Z,50.27
2022-11-30T00:16:08.945Z,50.47
2022-11-30T00:18:36.973Z,50.23
2022-11-30T00:21:08.511Z,50.60
2022-11-30T00:23:38.016Z,50.07
2022-11-30T00:26:07.762Z,50.17
2022-11-30T00:28:36.393Z,50.33
2022-11-30T00:31:06.268Z,50.23
2022-11-30T00:33:36.753Z,50.23
2022-11-30T00:36:06.968Z,49.83
2022-11-30T00:38:35.705Z,50.30
2022-11-30T00:41:03.895Z,50.53
2022-11-30T00:43:32.164Z,50.13
2022-11-30T00:46:00.135Z,50.13
2022-11-30T00:48:28.033Z,50.27
2022-11-30T00:50:57.653Z,50.13
2022-11-30T00:53:25.484Z,50.07
2022-11-30T00:55:53.376Z,50.00
2022-11-30T00:58:21.161Z,50.27
2022-11-30T01:00:49.132Z,50.20
2022-11-30T01:03:17.019Z,50.13
2022-11-30T01:05:44.920Z,50.17
2022-11-30T01:08:14.309Z,50.07
2022-11-30T01:10:44.521Z,50.07
2022-11-30T01:13:13.673Z,50.13
2022-11-30T01:15:44.202Z,50.27
2022-11-30T01:18:12.631Z,50.40
2022-11-30T01:20:42.418Z,50.10
2022-11-30T01:23:11.049Z,49.97
2022-11-30T01:25:40.434Z,50.50
2022-11-30T01:28:10.755Z,50.17
2022-11-30T01:30:38.593Z,50.40
2022-11-30T01:33:06.891Z,49.93
2022-11-30T01:35:34.713Z,50.23
2022-11-30T01:38:02.526Z,50.03
2022-11-30T01:40:30.285Z,50.03
2022-11-30T01:42:59.399Z,50.10
2022-11-30T01:45:27.518Z,50.00
2022-11-30T01:47:57.622Z,50.27
2022-11-30T01:50:30.110Z,50.37
2022-11-30T01:52:58.740Z,50.07
2022-11-30T01:55:30.576Z,50.27
2022-11-30T01:58:04.788Z,49.93
2022-11-30T02:00:33.319Z,50.10
2022-11-30T02:03:06.785Z,50.17
2022-11-30T02:05:37.456Z,49.90
2022-11-30T02:08:06.691Z,50.30
2022-11-30T02:10:38.460Z,49.93
2022-11-30T02:13:29.848Z,50.37
2022-11-30T02:16:08.804Z,50.03
2022-11-30T02:18:47.628Z,50.23
2022-11-30T02:21:20.161Z,50.47
2022-11-30T02:24:08.855Z,50.27
2022-11-30T02:26:52.020Z,50.37
2022-11-30T02:29:24.168Z,50.47
2022-11-30T02:31:58.233Z,50.07
2022-11-30T02:34:30.459Z,50.40
2022-11-30T02:36:59.895Z,50.43
2022-11-30T02:39:27.861Z,50.27
2022-11-30T02:41:55.672Z,50.27
2022-11-30T02:48:45.359Z,50.30
2022-11-30T02:51:18.377Z,50.60
2022-11-30T02:53:47.028Z,50.17
2022-11-30T02:56:14.903Z,50.20
2022-11-30T02:58:42.759Z,50.37
2022-11-30T03:01:10.798Z,50.27
2022-11-30T03:03:40.044Z,50.03
2022-11-30T03:06:07.895Z,50.20
2022-11-30T03:08:35.710Z,50.10
2022-11-30T03:11:04.009Z,50.03
2022-11-30T03:13:32.009Z,50.10
2022-11-30T03:15:59.890Z,50.00
2022-11-30T03:18:27.733Z,50.00
2022-11-30T03:20:56.892Z,50.20
2022-11-30T03:23:24.753Z,49.90
2022-11-30T03:25:52.609Z,50.30
2022-11-30T03:28:20.403Z,50.23
2022-11-30T03:30:49.848Z,50.17
2022-11-30T03:33:17.976Z,50.27
2022-11-30T03:35:46.119Z,50.37
2022-11-30T03:38:15.364Z,50.33
2022-11-30T03:40:43.203Z,50.17
2022-11-30T03:43:11.126Z,50.30
2022-11-30T03:45:38.941Z,50.57
2022-11-30T03:48:07.235Z,50.20
2022-11-30T03:50:35.049Z,50.27
2022-11-30T03:53:02.867Z,50.20
2022-11-30T03:55:31.983Z,50.10
2022-11-30T03:57:59.811Z,50.17
2022-11-30T04:00:27.685Z,50.00
2022-11-30T04:02:55.519Z,50.17
2022-11-30T04:05:23.339Z,50.57
2022-11-30T04:07:51.199Z,50.30
2022-11-30T04:10:19.041Z,50.10
2022-11-30T04:12:48.210Z,50.20
2022-11-30T04:15:16.140Z,50.37
2022-11-30T04:17:43.988Z,49.97
2022-11-30T04:20:12.357Z,50.20
2022-11-30T04:22:40.249Z,50.37
2022-11-30T04:25:09.278Z,50.10
2022-11-30T04:27:37.120Z,50.07
2022-11-30T04:30:07.866Z,49.87
2022-11-30T04:32:35.665Z,50.00
2022-11-30T04:35:03.481Z,49.90
2022-11-30T04:37:31.322Z,50.07
2022-11-30T04:39:59.117Z,49.83
2022-11-30T04:42:26.906Z,49.80
2022-11-30T04:44:54.702Z,50.03
2022-11-30T04:47:24.121Z,49.97
2022-11-30T04:49:51.941Z,49.83
2022-11-30T04:52:19.747Z,49.67
2022-11-30T04:54:47.777Z,50.03
2022-11-30T04:57:15.741Z,49.90
2022-11-30T04:59:43.553Z,49.53
2022-11-30T05:02:11.436Z,49.73
2022-11-30T05:04:40.669Z,49.90
2022-11-30T05:07:08.530Z,50.20
2022-11-30T05:09:38.028Z,49.97
2022-11-30T05:12:06.120Z,50.00
2022-11-30T05:14:33.927Z,49.67
2022-11-30T05:17:01.737Z,49.93
2022-11-30T05:19:29.554Z,50.40
2022-11-30T05:21:58.694Z,49.97
2022-11-30T05:24:26.565Z,50.30
2022-11-30T05:26:54.418Z,49.97
2022-11-30T05:29:22.228Z,50.10
2022-11-30T05:31:50.178Z,49.90
2022-11-30T05:34:18.053Z,49.90
2022-11-30T05:36:45.870Z,50.00
2022-11-30T05:39:15.022Z,50.00
2022-11-30T05:41:43.063Z,49.90
2022-11-30T05:44:11.466Z,50.00
2022-11-30T05:46:41.093Z,49.87
2022-11-30T05:49:09.134Z,50.17
2022-11-30T05:51:36.936Z,49.97
2022-11-30T05:54:04.924Z,50.10
2022-11-30T05:56:34.112Z,50.40
2022-11-30T05:59:02.002Z,50.10
2022-11-30T06:01:30.757Z,50.37
2022-11-30T06:03:59.207Z,50.03
2022-11-30T06:06:27.038Z,49.97
2022-11-30T06:08:55.478Z,50.20
2022-11-30T06:11:23.322Z,50.03
2022-11-30T06:13:52.484Z,50.43
2022-11-30T06:16:20.387Z,50.57
2022-11-30T06:18:48.231Z,50.30
2022-11-30T06:21:21.043Z,50.13
2022-11-30T06:23:51.860Z,50.00
2022-11-30T06:26:19.824Z,50.37
2022-11-30T06:28:48.777Z,50.43
2022-11-30T06:31:18.359Z,50.13
2022-11-30T06:33:46.224Z,50.17
2022-11-30T06:36:14.055Z,50.50
2022-11-30T06:38:41.991Z,50.23
2022-11-30T06:41:12.339Z,50.50
2022-11-30T06:43:41.201Z,50.33
2022-11-30T06:46:09.218Z,50.27
2022-11-30T06:48:38.505Z,50.53
2022-11-30T06:51:07.738Z,50.47
2022-11-30T06:53:35.866Z,50.20
2022-11-30T06:56:09.986Z,50.30
2022-11-30T06:58:38.850Z,50.53
2022-11-30T07:01:07.661Z,50.20
2022-11-30T07:03:35.633Z,50.23
2022-11-30T07:06:08.092Z,50.63
2022-11-30T07:08:36.140Z,50.10
2022-11-30T07:11:04.413Z,49.67
2022-11-30T07:13:32.234Z,49.40
2022-11-30T07:16:00.073Z,49.17
2022-11-30T07:18:31.921Z,48.97
2022-11-30T07:21:00.715Z,49.20
2022-11-30T07:23:52.350Z,48.83
2022-11-30T07:26:23.789Z,48.90
2022-11-30T07:28:54.711Z,48.60
2022-11-30T07:31:24.946Z,48.50
2022-11-30T07:33:53.274Z,48.70
2022-11-30T07:36:22.823Z,48.40
2022-11-30T07:38:52.179Z,48.40
2022-11-30T07:41:20.030Z,48.17
2022-11-30T07:43:47.894Z,48.27
2022-11-30T07:46:16.772Z,48.37
2022-11-30T07:48:45.953Z,48.23
2022-11-30T07:51:16.275Z,48.30
2022-11-30T07:53:44.752Z,47.97
2022-11-30T07:56:15.652Z,48.30
2022-11-30T07:58:44.076Z,48.53
2022-11-30T08:01:14.304Z,48.13
2022-11-30T08:03:42.420Z,48.67
2022-11-30T08:06:11.946Z,48.60
2022-11-30T08:08:42.020Z,48.00
2022-11-30T08:11:12.278Z,48.47
2022-11-30T08:13:41.644Z,48.37
2022-11-30T08:16:12.328Z,48.50
2022-11-30T08:18:40.796Z,47.97
2022-11-30T08:21:12.189Z,48.13
2022-11-30T08:23:41.575Z,48.40
2022-11-30T08:26:13.361Z,48.37
2022-11-30T08:28:43.692Z,48.50
2022-11-30T08:31:13.769Z,48.60
2022-11-30T08:33:41.668Z,48.37
2022-11-30T08:36:10.534Z,48.80
2022-11-30T08:38:38.883Z,48.53
2022-11-30T08:41:07.890Z,49.17
2022-11-30T08:43:35.773Z,48.70
2022-11-30T08:46:27.383Z,48.33
2022-11-30T08:49:12.549Z,48.50
2022-11-30T08:52:15.432Z,48.30
2022-11-30T08:54:30.200Z,48.23
2022-11-30T08:56:59.043Z,48.33
2022-11-30T08:59:27.032Z,48.37
2022-11-30T09:01:56.379Z,48.30
2022-11-30T09:04:24.270Z,48.43
2022-11-30T09:06:52.794Z,48.57
2022-11-30T09:09:20.726Z,49.10
2022-11-30T09:11:48.548Z,49.00
2022-11-30T09:14:16.357Z,48.43
2022-11-30T09:16:44.164Z,48.60
2022-11-30T09:19:13.350Z,48.87
2022-11-30T09:21:44.311Z,48.77
2022-11-30T09:24:14.658Z,48.50
2022-11-30T09:26:42.457Z,48.37
2022-11-30T09:29:10.298Z,48.63
2022-11-30T09:31:38.130Z,48.50
2022-11-30T09:34:06.095Z,48.80
2022-11-30T09:36:36.516Z,48.77
2022-11-30T09:39:04.562Z,48.97
2022-11-30T09:42:09.136Z,48.83
2022-11-30T09:44:47.847Z,48.83
2022-11-30T09:47:32.216Z,48.90
2022-11-30T09:50:04.681Z,48.67
2022-11-30T09:52:40.080Z,48.63
2022-11-30T09:55:10.362Z,48.50
2022-11-30T09:57:46.913Z,48.53
2022-11-30T10:00:18.993Z,47.90
2022-11-30T10:02:47.153Z,48.07
2022-11-30T10:05:16.772Z,48.63
2022-11-30T10:07:57.810Z,48.40
2022-11-30T10:10:33.306Z,48.17
2022-11-30T10:13:09.864Z,48.30
2022-11-30T10:15:48.292Z,48.47
2022-11-30T10:18:26.270Z,48.53
2022-11-30T10:21:02.736Z,48.37
2022-11-30T10:23:45.700Z,48.47
2022-11-30T10:26:16.626Z,48.70
2022-11-30T10:28:51.652Z,48.20
2022-11-30T10:31:21.505Z,48.30
2022-11-30T10:33:52.084Z,48.50
2022-11-30T10:36:27.594Z,48.20
2022-11-30T10:39:00.303Z,48.50
2022-11-30T10:41:34.055Z,48.17
2022-11-30T10:44:05.950Z,48.17
2022-11-30T10:46:37.265Z,48.63
2022-11-30T10:49:08.824Z,48.57
2022-11-30T10:51:39.829Z,48.43
2022-11-30T10:54:15.810Z,48.27
2022-11-30T10:56:43.841Z,48.60
2022-11-30T10:59:18.293Z,48.33
2022-11-30T11:01:46.147Z,48.50
2022-11-30T11:04:17.551Z,48.27
2022-11-30T11:06:48.628Z,48.53
2022-11-30T11:09:42.804Z,48.67
2022-11-30T11:12:18.639Z,48.37
2022-11-30T11:14:46.789Z,48.33
2022-11-30T11:17:26.220Z,48.53
2022-11-30T11:19:54.251Z,48.17
2022-11-30T11:22:23.552Z,47.80
2022-11-30T11:24:55.989Z,47.77
2022-11-30T11:27:29.810Z,47.83
2022-11-30T11:30:08.137Z,48.23
2022-11-30T11:32:36.365Z,48.20
2022-11-30T11:35:04.859Z,48.17
2022-11-30T11:37:38.163Z,48.37
2022-11-30T11:40:17.100Z,48.03
2022-11-30T11:42:48.934Z,47.97
2022-11-30T11:45:20.915Z,48.07
2022-11-30T11:47:58.182Z,48.50
2022-11-30T11:53:24.897Z,48.13
2022-11-30T11:56:01.164Z,48.30
2022-11-30T11:58:42.582Z,48.17
2022-11-30T12:03:20.295Z,48.60
2022-11-30T12:05:53.530Z,48.67
2022-11-30T12:08:34.461Z,48.37
2022-11-30T12:11:06.060Z,48.30
2022-11-30T12:13:38.256Z,48.40
2022-11-30T12:16:20.701Z,48.20
2022-11-30T12:18:57.670Z,48.30
2022-11-30T12:21:37.210Z,48.10
2022-11-30T12:24:19.990Z,48.30
2022-11-30T12:26:52.817Z,48.20
2022-11-30T12:29:25.101Z,48.10
2022-11-30T12:32:09.703Z,48.23
2022-11-30T12:35:02.365Z,48.20
2022-11-30T12:37:47.156Z,48.10
2022-11-30T12:40:30.986Z,47.90
2022-11-30T12:43:10.287Z,47.90
2022-11-30T12:45:41.373Z,48.07
2022-11-30T12:48:20.982Z,47.87
2022-11-30T12:51:02.952Z,47.80
2022-11-30T12:53:36.220Z,47.70
2022-11-30T12:56:18.179Z,47.70
2022-11-30T12:58:52.187Z,47.87
2022-11-30T13:01:38.255Z,47.73
2022-11-30T13:04:10.406Z,47.73
2022-11-30T13:06:44.903Z,47.63
2022-11-30T13:09:21.253Z,47.70
2022-11-30T13:11:53.787Z,47.80
2022-11-30T13:14:23.934Z,47.53
2022-11-30T13:16:59.050Z,47.77
2022-11-30T13:19:44.006Z,47.40
2022-11-30T13:22:20.217Z,47.60
2022-11-30T13:24:53.953Z,47.57
2022-11-30T13:27:27.709Z,47.70
2022-11-30T13:30:17.955Z,47.60
2022-11-30T13:33:01.063Z,47.73
2022-11-30T13:35:42.432Z,47.60
2022-11-30T13:38:37.462Z,47.60
2022-11-30T13:41:08.277Z,47.70
2022-11-30T13:43:41.154Z,47.67
2022-11-30T13:46:16.244Z,47.50
2022-11-30T13:48:45.727Z,47.60
2022-11-30T13:51:14.756Z,47.57
2022-11-30T13:53:44.035Z,47.67
2022-11-30T13:56:35.262Z,47.70
2022-11-30T13:59:45.394Z,47.30
2022-11-30T14:02:59.807Z,47.20
2022-11-30T14:05:37.951Z,47.23
2022-11-30T14:08:35.704Z,47.63
2022-11-30T14:11:42.566Z,47.33
2022-11-30T14:14:45.467Z,47.70
2022-11-30T14:17:27.170Z,47.30
2022-11-30T14:19:59.645Z,47.40
2022-11-30T14:22:29.758Z,47.30
2022-11-30T14:24:58.130Z,47.47
2022-11-30T14:27:30.438Z,47.20
2022-11-30T14:30:04.132Z,47.27
2022-11-30T14:32:37.776Z,47.20
2022-11-30T14:35:10.250Z,47.30
2022-11-30T14:37:43.601Z,47.57
2022-11-30T14:40:21.596Z,47.40
2022-11-30T14:42:54.726Z,47.17
2022-11-30T14:45:25.529Z,47.30
2022-11-30T14:48:04.501Z,47.20
2022-11-30T14:50:33.113Z,47.40
2022-11-30T14:53:18.873Z,47.43
2022-11-30T14:55:51.513Z,46.93
2022-11-30T14:58:24.910Z,47.17
2022-11-30T15:00:53.117Z,47.20
2022-11-30T15:03:26.652Z,47.00
2022-11-30T15:05:56.978Z,47.03
2022-11-30T15:08:27.988Z,47.10
2022-11-30T15:10:58.439Z,47.00
2022-11-30T15:13:27.723Z,47.13
2022-11-30T15:15:56.550Z,47.20
2022-11-30T15:18:25.699Z,47.07
2022-11-30T15:20:58.118Z,46.97
2022-11-30T15:23:26.122Z,47.00
2022-11-30T15:25:58.801Z,46.93
2022-11-30T15:28:32.237Z,46.97
2022-11-30T15:31:03.719Z,46.90
2022-11-30T15:33:37.704Z,47.20
2022-11-30T15:36:22.933Z,47.10
2022-11-30T15:38:53.962Z,47.20
2022-11-30T15:41:24.278Z,47.20
2022-11-30T15:43:55.873Z,47.10
2022-11-30T15:46:31.720Z,47.03
2022-11-30T15:49:17.226Z,47.07
2022-11-30T15:51:46.811Z,47.30
2022-11-30T15:54:15.446Z,47.50
2022-11-30T15:56:56.993Z,47.50
2022-11-30T15:59:28.824Z,47.63
2022-11-30T16:02:08.340Z,47.77
2022-11-30T16:05:19.610Z,47.87
2022-11-30T16:07:53.625Z,47.93
2022-11-30T16:10:23.546Z,48.10
2022-11-30T16:12:53.333Z,47.70
2022-11-30T16:15:24.806Z,48.03
2022-11-30T16:17:53.801Z,48.07
2022-11-30T16:20:21.894Z,47.90
2022-11-30T16:22:50.184Z,48.00
2022-11-30T16:25:20.265Z,48.00
2022-11-30T16:27:48.701Z,47.83
2022-11-30T16:30:18.407Z,48.00
2022-11-30T16:32:48.034Z,48.00
2022-11-30T16:35:21.592Z,47.73
2022-11-30T16:37:49.603Z,48.20
2022-11-30T16:40:18.021Z,48.20
2022-11-30T16:42:45.977Z,47.97
2022-11-30T16:45:17.536Z,47.70
2022-11-30T16:47:46.846Z,48.03
2022-11-30T16:50:15.497Z,48.10
2022-11-30T16:52:43.698Z,48.17
2022-11-30T16:55:14.741Z,47.90
2022-11-30T16:57:42.598Z,48.10
2022-11-30T17:00:12.162Z,48.10
2022-11-30T17:02:45.802Z,48.27
2022-11-30T17:05:16.138Z,47.90
2022-11-30T17:07:44.455Z,48.20
2022-11-30T17:10:13.469Z,47.77
2022-11-30T17:12:41.292Z,48.37
2022-11-30T17:15:15.163Z,48.00
2022-11-30T17:17:43.043Z,47.97
2022-11-30T17:20:11.985Z,48.10
2022-11-30T17:22:41.747Z,47.90
2022-11-30T17:25:15.994Z,48.07
2022-11-30T17:27:44.689Z,48.13
2022-11-30T17:30:14.337Z,48.20
2022-11-30T17:32:42.150Z,48.13
2022-11-30T17:35:10.706Z,48.20
2022-11-30T17:37:38.692Z,48.30
2022-11-30T17:40:11.347Z,48.07
2022-11-30T17:42:39.171Z,48.23
2022-11-30T17:45:07.993Z,48.10
2022-11-30T17:47:35.913Z,48.10
2022-11-30T17:50:04.059Z,48.57
2022-11-30T17:52:31.889Z,48.40
2022-11-30T17:54:59.705Z,48.00
2022-11-30T17:57:28.851Z,48.17
2022-11-30T17:59:56.673Z,48.07
2022-11-30T18:02:24.547Z,48.17
2022-11-30T18:04:52.591Z,48.13
2022-11-30T18:07:21.000Z,48.03
2022-11-30T18:09:48.849Z,48.33
2022-11-30T18:12:16.700Z,48.17
2022-11-30T18:14:46.674Z,48.10
2022-11-30T18:17:14.883Z,48.10
2022-11-30T18:19:42.722Z,47.80
2022-11-30T18:22:10.574Z,48.13
2022-11-30T18:24:38.377Z,48.40
2022-11-30T18:27:06.203Z,48.20
2022-11-30T18:29:34.060Z,48.30
2022-11-30T18:32:03.227Z,48.10
2022-11-30T18:34:31.006Z,48.00
2022-11-30T18:36:58.826Z,48.10
2022-11-30T18:39:26.645Z,48.07
2022-11-30T18:41:54.451Z,47.93
2022-11-30T18:44:22.315Z,48.10
2022-11-30T18:46:50.147Z,48.37
2022-11-30T18:49:21.032Z,48.10
2022-11-30T18:51:49.060Z,48.13
2022-11-30T18:54:16.857Z,48.30
2022-11-30T18:56:44.669Z,48.03
2022-11-30T18:59:15.403Z,47.80
2022-11-30T19:01:43.682Z,47.80
2022-11-30T19:04:12.382Z,48.00
2022-11-30T19:06:43.186Z,48.00
2022-11-30T19:09:14.012Z,48.30
2022-11-30T19:11:43.400Z,48.13
2022-11-30T19:14:14.386Z,48.13
2022-11-30T19:16:42.789Z,47.93
2022-11-30T19:19:13.758Z,48.30
2022-11-30T19:21:47.496Z,47.90
2022-11-30T19:24:15.518Z,48.07
2022-11-30T19:26:43.345Z,47.90
2022-11-30T19:29:12.722Z,48.00
2022-11-30T19:31:40.600Z,48.10
2022-11-30T19:34:12.621Z,48.10
2022-11-30T19:36:41.405Z,48.03
2022-11-30T19:39:11.417Z,47.90
2022-11-30T19:41:39.437Z,48.07
2022-11-30T19:44:07.251Z,48.10
2022-11-30T19:46:35.354Z,47.97
2022-11-30T19:49:03.440Z,47.87
2022-11-30T19:51:32.235Z,47.93
2022-11-30T19:54:03.333Z,47.97
2022-11-30T19:56:34.458Z,47.77
2022-11-30T19:59:05.666Z,47.90
2022-11-30T20:01:35.213Z,47.90
2022-11-30T20:04:03.523Z,47.97
2022-11-30T20:06:33.560Z,47.93
2022-11-30T20:09:01.854Z,48.03
2022-11-30T20:11:29.786Z,48.13
2022-11-30T20:14:00.140Z,48.20
2022-11-30T20:16:29.236Z,48.00
2022-11-30T20:19:00.558Z,48.03
2022-11-30T20:21:30.252Z,47.97
2022-11-30T20:23:59.701Z,47.80
2022-11-30T20:26:30.639Z,47.87
2022-11-30T20:29:01.206Z,48.03
2022-11-30T20:31:34.195Z,47.70
2022-11-30T20:34:02.283Z,48.00
2022-11-30T20:36:30.521Z,47.80
2022-11-30T20:38:59.741Z,48.10
2022-11-30T20:41:28.525Z,48.30
2022-11-30T20:43:57.099Z,48.07
2022-11-30T20:46:28.366Z,48.10
2022-11-30T20:48:57.038Z,48.03
2022-11-30T20:51:31.760Z,48.27
2022-11-30T20:54:01.922Z,47.80
2022-11-30T20:56:29.763Z,47.90
2022-11-30T20:59:00.990Z,47.97
2022-11-30T21:01:30.618Z,47.90
2022-11-30T21:03:59.543Z,48.10
2022-11-30T21:06:27.657Z,47.87
2022-11-30T21:08:55.790Z,47.77
2022-11-30T21:11:23.915Z,48.10
2022-11-30T21:13:52.487Z,48.00
2022-11-30T21:16:27.193Z,47.70
2022-11-30T21:18:59.278Z,47.77
2022-11-30T21:21:30.329Z,48.10
2022-11-30T21:23:59.828Z,47.63
2022-11-30T21:26:30.722Z,47.83
2022-11-30T21:29:01.664Z,47.63
2022-11-30T21:31:29.955Z,47.80
2022-11-30T21:33:59.306Z,47.70
2022-11-30T21:36:27.313Z,47.67
2022-11-30T21:39:01.063Z,47.83
2022-11-30T21:41:32.946Z,47.60
2022-11-30T21:44:00.805Z,47.87
2022-11-30T21:46:28.695Z,47.77
2022-11-30T21:48:56.560Z,47.77
2022-11-30T21:51:27.412Z,47.73
2022-11-30T21:53:57.322Z,47.70
2022-11-30T21:56:29.257Z,47.70
2022-11-30T21:58:57.962Z,47.67
2022-11-30T22:01:28.994Z,47.53
2022-11-30T22:03:58.051Z,47.77
2022-11-30T22:06:29.040Z,47.60
2022-11-30T22:09:02.535Z,47.67
2022-11-30T22:11:31.200Z,47.90
2022-11-30T22:13:59.082Z,47.97
2022-11-30T22:16:35.359Z,47.70
2022-11-30T22:19:04.835Z,47.57
2022-11-30T22:21:34.682Z,47.87
2022-11-30T22:24:04.461Z,47.80
2022-11-30T22:26:34.546Z,47.47
2022-11-30T22:29:05.234Z,47.87
2022-11-30T22:31:35.643Z,47.97
2022-11-30T22:34:03.849Z,47.90
2022-11-30T22:36:35.866Z,47.77
2022-11-30T22:39:07.368Z,47.80
2022-11-30T22:41:35.178Z,47.70
2022-11-30T22:44:03.013Z,47.70
2022-11-30T22:46:32.858Z,47.77
2022-11-30T22:49:02.081Z,47.73
2022-11-30T22:51:31.810Z,47.87
2022-11-30T22:54:01.991Z,47.67
2022-11-30T22:56:31.400Z,47.77
2022-11-30T22:59:00.675Z,48.00
2022-11-30T23:01:31.116Z,47.90
2022-11-30T23:04:03.545Z,47.90
2022-11-30T23:06:31.989Z,47.90
2022-11-30T23:09:01.168Z,47.77
2022-11-30T23:11:29.701Z,47.70
2022-11-30T23:13:57.583Z,47.77
2022-11-30T23:16:25.760Z,47.90
2022-11-30T23:18:55.515Z,47.67
2022-11-30T23:21:25.442Z,47.90
2022-11-30T23:23:55.310Z,47.67
2022-11-30T23:26:26.358Z,47.77
2022-11-30T23:28:55.594Z,48.07
2022-11-30T23:31:33.638Z,47.97
2022-11-30T23:34:05.450Z,47.80
2022-11-30T23:36:33.469Z,47.60
2022-11-30T23:39:02.903Z,47.93
2022-11-30T23:41:32.574Z,47.80
2022-11-30T23:44:00.396Z,47.70
2022-11-30T23:46:28.389Z,47.87
2022-11-30T23:48:56.526Z,48.00
2022-11-30T23:51:25.057Z,47.90
2022-11-30T23:53:53.217Z,48.00
2022-11-30T23:56:23.271Z,47.93
2022-11-30T23:58:52.908Z,47.87
